Time;durP1;ratioP1;P1;durP2;ratioP2;P2;SDS_P1;SDS_P2;PMS_P1;PMS_P2;Temp;Humidity;BMP_temperature;BMP_pressure;BME280_temperature;BME280_humidity;BME280_pressure;Samples;Min_cycle;Max_cycle;Signal;HPM_P1;HPM_P2
2023/03/04 00:02:08;;;;;;;16.83;14.30;;;;;;;8.48;100.00;94913.78;5034566;28;20476;-74
2023/03/04 00:04:35;;;;;;;26.47;14.97;;;;;;;8.51;100.00;94913.56;5034389;28;20506;-74
2023/03/04 00:07:02;;;;;;;21.70;14.83;;;;;;;8.56;100.00;94908.81;5034311;28;20457;-74
2023/03/04 00:09:28;;;;;;;23.90;16.77;;;;;;;8.59;100.00;94912.97;5035009;28;20798;-73
2023/03/04 00:11:55;;;;;;;22.53;15.83;;;;;;;8.60;100.00;94915.47;5034463;28;20440;-74
2023/03/04 00:14:22;;;;;;;23.80;16.20;;;;;;;8.63;100.00;94899.53;5034690;28;20441;-73
2023/03/04 00:16:49;;;;;;;27.13;18.23;;;;;;;8.62;100.00;94900.47;5034253;28;20939;-73
2023/03/04 00:19:17;;;;;;;24.83;16.00;;;;;;;8.63;100.00;94899.53;4999179;28;20444;-74
2023/03/04 00:21:44;;;;;;;26.00;15.70;;;;;;;8.59;100.00;94900.72;5034219;28;20467;-73
2023/03/04 00:24:11;;;;;;;25.63;16.70;;;;;;;8.57;100.00;94899.16;5034324;28;20445;-74
2023/03/04 00:26:37;;;;;;;29.90;18.60;;;;;;;8.57;100.00;94900.00;5034497;28;20453;-74
2023/03/04 00:29:04;;;;;;;23.57;15.77;;;;;;;8.54;100.00;94902.03;5033986;28;20803;-73
2023/03/04 00:31:31;;;;;;;23.43;14.83;;;;;;;8.53;100.00;94892.50;5034024;28;20531;-74
2023/03/04 00:33:58;;;;;;;24.57;16.70;;;;;;;8.53;100.00;94895.97;5033818;28;20481;-74
2023/03/04 00:36:26;;;;;;;26.00;17.43;;;;;;;8.55;100.00;94895.84;5034063;28;20796;-74
2023/03/04 00:38:53;;;;;;;21.43;15.27;;;;;;;8.58;100.00;94893.81;5033808;28;20488;-73
2023/03/04 00:41:19;;;;;;;19.00;15.10;;;;;;;8.54;100.00;94892.41;5033723;28;21224;-74
2023/03/04 00:43:46;;;;;;;22.00;15.10;;;;;;;8.56;100.00;94895.72;5033681;28;20519;-74
2023/03/04 00:46:13;;;;;;;23.00;15.60;;;;;;;8.60;100.00;94898.94;4998676;28;20457;-74
2023/03/04 00:48:40;;;;;;;19.80;13.83;;;;;;;8.56;100.00;94892.28;5033403;28;20448;-74
2023/03/04 00:51:07;;;;;;;23.37;16.27;;;;;;;8.56;100.00;94894.88;5033350;28;20497;-73
2023/03/04 00:53:35;;;;;;;21.80;15.40;;;;;;;8.54;100.00;94897.63;5033803;28;20457;-73
2023/03/04 00:56:01;;;;;;;20.80;15.90;;;;;;;8.55;100.00;94890.63;4998191;28;20864;-73
2023/03/04 00:58:28;;;;;;;25.33;16.70;;;;;;;8.54;100.00;94887.16;5033436;28;20943;-73
2023/03/04 01:00:55;;;;;;;25.63;17.43;;;;;;;8.55;100.00;94893.22;4998306;28;20453;-73
2023/03/04 01:03:23;;;;;;;29.07;16.87;;;;;;;8.55;100.00;94888.00;4998383;28;20952;-74
2023/03/04 01:05:50;;;;;;;29.97;17.37;;;;;;;8.55;100.00;94888.81;5033205;28;20979;-74
2023/03/04 01:08:16;;;;;;;22.80;16.87;;;;;;;8.55;100.00;94886.22;5033126;28;20922;-74
2023/03/04 01:10:44;;;;;;;23.53;15.30;;;;;;;8.55;100.00;94880.16;5032981;28;20536;-74
2023/03/04 01:13:11;;;;;;;27.03;16.93;;;;;;;8.55;100.00;94880.16;5033012;28;20508;-74
2023/03/04 01:15:38;;;;;;;22.20;15.83;;;;;;;8.49;100.00;94876.22;5032863;28;20445;-73
2023/03/04 01:18:05;;;;;;;26.33;17.70;;;;;;;8.39;100.00;94877.91;5033064;28;20461;-72
2023/03/04 01:20:31;;;;;;;26.17;16.77;;;;;;;8.37;100.00;94866.69;5032963;28;20498;-73
2023/03/04 01:22:58;;;;;;;26.40;19.17;;;;;;;8.32;100.00;94874.03;5033193;28;20451;-73
2023/03/04 01:25:25;;;;;;;30.77;18.07;;;;;;;8.29;100.00;94869.03;5033116;28;20451;-74
2023/03/04 01:27:53;;;;;;;27.40;18.50;;;;;;;8.30;100.00;94871.53;5033014;28;20452;-73
2023/03/04 01:30:20;;;;;;;26.60;16.70;;;;;;;8.26;100.00;94864.03;4997044;28;21029;-72
2023/03/04 01:32:47;;;;;;;24.83;15.93;;;;;;;8.18;100.00;94854.19;5032741;28;20457;-74
2023/03/04 01:35:14;;;;;;;22.53;14.90;;;;;;;8.18;100.00;94853.34;5032451;28;20473;-74
2023/03/04 01:37:40;;;;;;;21.57;14.37;;;;;;;8.12;100.00;94856.44;5032979;28;20959;-73
2023/03/04 01:40:09;;;;;;;21.10;14.10;;;;;;;8.08;100.00;94854.03;5032814;28;20440;-73
2023/03/04 01:42:36;;;;;;;18.50;12.60;;;;;;;7.98;100.00;94852.22;4965962;28;20437;-74
2023/03/04 01:45:06;;;;;;;20.53;14.13;;;;;;;7.96;100.00;94849.72;5032239;28;20440;-74
2023/03/04 01:47:34;;;;;;;20.37;13.33;;;;;;;8.00;100.00;94856.38;4997777;28;20551;-74
2023/03/04 01:50:04;;;;;;;23.33;14.83;;;;;;;8.04;100.00;94847.38;5032404;28;20514;-74
2023/03/04 01:52:31;;;;;;;21.37;13.27;;;;;;;7.98;100.00;94845.22;5032315;28;20452;-74
2023/03/04 01:54:58;;;;;;;19.27;14.53;;;;;;;7.96;100.00;94847.13;5032519;28;20528;-74
2023/03/04 01:57:26;;;;;;;18.27;13.70;;;;;;;7.94;100.00;94846.41;5032450;28;20878;-73
2023/03/04 02:00:19;;;;;;;20.43;14.13;;;;;;;7.88;100.00;94849.47;5032165;28;20813;-73
2023/03/04 02:02:46;;;;;;;18.83;12.60;;;;;;;7.90;100.00;94850.19;5032515;28;20887;-74
2023/03/04 02:05:14;;;;;;;25.30;15.60;;;;;;;7.97;100.00;94843.56;4997380;28;20448;-74
2023/03/04 02:07:41;;;;;;;24.10;14.63;;;;;;;8.03;100.00;94850.94;5032069;28;20444;-74
2023/03/04 02:10:10;;;;;;;22.90;14.13;;;;;;;8.06;100.00;94837.63;5032113;28;20456;-74
2023/03/04 02:12:38;;;;;;;18.50;12.80;;;;;;;8.14;100.00;94839.69;5031974;28;20444;-74
2023/03/04 02:15:06;;;;;;;18.20;13.80;;;;;;;8.20;100.00;94833.16;5032054;28;20452;-74
2023/03/04 02:17:34;;;;;;;18.50;14.03;;;;;;;8.17;100.00;94846.47;4997301;28;20502;-73
2023/03/04 02:20:07;;;;;;;30.70;16.20;;;;;;;8.24;100.00;94834.56;5032398;28;20499;-73
2023/03/04 02:22:38;;;;;;;26.93;15.73;;;;;;;8.23;100.00;94838.16;4996906;28;20436;-74
2023/03/04 02:25:09;;;;;;;19.50;13.90;;;;;;;8.19;100.00;94837.53;5032193;28;20455;-74
2023/03/04 02:27:38;;;;;;;22.57;15.40;;;;;;;8.19;100.00;94847.16;5032154;28;20494;-74
2023/03/04 02:30:33;;;;;;;20.17;14.97;;;;;;;8.06;100.00;94847.25;5031681;28;20810;-74
2023/03/04 02:33:24;;;;;;;21.27;14.37;;;;;;;8.07;100.00;94835.84;5031767;28;20805;-73
2023/03/04 02:35:50;;;;;;;28.10;18.97;;;;;;;8.03;100.00;94840.47;5031598;28;20440;-73
2023/03/04 02:38:17;;;;;;;25.47;15.07;;;;;;;8.02;100.00;94838.81;5031975;28;20471;-73
2023/03/04 02:40:48;;;;;;;20.43;14.03;;;;;;;7.98;100.00;94832.16;5032059;28;20448;-73
2023/03/04 02:43:17;;;;;;;19.60;13.73;;;;;;;7.96;100.00;94838.44;5036363;28;20432;-73
2023/03/04 02:45:46;;;;;;;21.63;15.50;;;;;;;7.97;100.00;94833.09;5036177;28;20459;-74
2023/03/04 02:48:15;;;;;;;21.40;14.90;;;;;;;8.00;100.00;94829.44;5001250;28;20498;-74
2023/03/04 02:50:44;;;;;;;21.83;15.00;;;;;;;8.03;100.00;94829.19;5035657;28;20526;-74
2023/03/04 02:53:11;;;;;;;21.67;15.60;;;;;;;8.05;100.00;94830.75;5036064;28;20501;-74
2023/03/04 02:55:38;;;;;;;25.73;15.70;;;;;;;8.10;100.00;94824.34;5000924;28;20456;-73
2023/03/04 02:58:05;;;;;;;23.27;16.33;;;;;;;8.10;100.00;94829.59;5035612;28;20451;-74
2023/03/04 03:00:33;;;;;;;28.17;16.97;;;;;;;8.09;100.00;94831.34;5035866;28;20456;-74
2023/03/04 03:02:59;;;;;;;24.60;16.07;;;;;;;8.07;100.00;94834.06;5017267;28;20446;-74
2023/03/04 03:05:29;;;;;;;26.77;18.03;;;;;;;8.04;100.00;94826.47;5035606;28;20456;-73
2023/03/04 03:07:55;;;;;;;25.17;15.33;;;;;;;8.05;100.00;94824.69;5036002;28;20443;-73
2023/03/04 03:10:22;;;;;;;23.47;16.03;;;;;;;8.03;100.00;94832.63;5035657;28;20448;-73
2023/03/04 03:12:49;;;;;;;25.03;15.10;;;;;;;8.00;100.00;94827.66;5035612;28;20447;-73
2023/03/04 03:15:16;;;;;;;24.03;15.30;;;;;;;7.99;100.00;94825.97;5035808;28;20452;-74
2023/03/04 03:17:44;;;;;;;22.30;15.40;;;;;;;7.99;100.00;94822.53;5035626;28;20448;-74
2023/03/04 03:20:13;;;;;;;27.73;18.90;;;;;;;7.96;100.00;94830.63;5035413;28;20453;-73
2023/03/04 03:22:40;;;;;;;27.70;17.87;;;;;;;7.94;100.00;94835.97;5000460;28;20979;-74
2023/03/04 03:25:07;;;;;;;43.50;22.30;;;;;;;7.84;99.40;94829.78;5016945;28;20443;-73
2023/03/04 03:27:34;;;;;;;34.73;20.50;;;;;;;7.58;100.00;94823.03;5035561;28;20444;-74
2023/03/04 03:30:01;;;;;;;24.50;16.07;;;;;;;7.47;100.00;94823.81;5000334;28;20459;-73
2023/03/04 03:32:28;;;;;;;23.60;16.40;;;;;;;7.32;100.00;94824.97;5035073;28;20499;-72
2023/03/04 03:34:56;;;;;;;25.10;16.40;;;;;;;7.32;100.00;94824.97;5035118;28;20467;-74
2023/03/04 03:37:23;;;;;;;28.47;16.43;;;;;;;7.36;100.00;94821.16;5034874;28;20501;-73
2023/03/04 03:39:50;;;;;;;34.13;19.27;;;;;;;7.38;100.00;94820.09;5035075;28;20451;-74
2023/03/04 03:42:17;;;;;;;23.20;14.30;;;;;;;7.38;100.00;94820.09;5034826;28;20452;-73
2023/03/04 03:44:43;;;;;;;18.70;12.67;;;;;;;7.42;100.00;94823.31;5035086;28;20502;-73
2023/03/04 03:47:10;;;;;;;17.87;12.80;;;;;;;7.45;100.00;94820.47;5035084;28;20510;-73
2023/03/04 03:49:37;;;;;;;20.07;12.90;;;;;;;7.49;100.00;94816.69;5035234;28;20499;-73
2023/03/04 03:52:07;;;;;;;17.57;13.00;;;;;;;7.50;100.00;94818.38;5034769;28;20494;-73
2023/03/04 03:54:33;;;;;;;18.17;12.43;;;;;;;7.51;99.64;94821.81;5034106;28;20440;-73
2023/03/04 03:57:00;;;;;;;26.57;14.37;;;;;;;7.47;99.13;94819.44;5034721;28;20441;-74
2023/03/04 03:59:27;;;;;;;16.40;12.10;;;;;;;7.38;98.76;94809.66;4999289;28;20937;-73
2023/03/04 04:01:56;;;;;;;20.30;12.07;;;;;;;7.34;98.48;94817.84;5035734;28;20502;-74
2023/03/04 04:04:23;;;;;;;17.90;11.13;;;;;;;7.29;97.80;94812.97;5035841;28;20904;-73
2023/03/04 04:06:49;;;;;;;17.97;13.53;;;;;;;7.26;97.57;94809.75;5036016;28;21158;-74
2023/03/04 04:09:18;;;;;;;13.80;11.60;;;;;;;7.23;97.87;94809.94;5035672;28;20510;-73
2023/03/04 04:11:44;;;;;;;20.97;14.07;;;;;;;7.19;97.99;94809.34;5036280;28;20496;-73
2023/03/04 04:14:12;;;;;;;20.50;12.97;;;;;;;7.15;98.48;94813.13;5036261;28;20501;-73
2023/03/04 04:16:39;;;;;;;19.03;10.93;;;;;;;7.06;98.74;94808.56;5035834;28;20455;-73
2023/03/04 04:19:06;;;;;;;17.10;11.27;;;;;;;7.02;99.02;94818.41;5036011;28;20479;-74
2023/03/04 04:21:33;;;;;;;19.90;12.60;;;;;;;6.98;98.79;94810.91;5001225;28;20986;-72
2023/03/04 04:24:00;;;;;;;17.13;11.20;;;;;;;6.93;98.67;94813.00;5035963;28;20824;-73
2023/03/04 04:26:28;;;;;;;17.07;12.20;;;;;;;6.86;98.17;94811.78;5035735;28;20755;-74
2023/03/04 04:28:55;;;;;;;17.13;11.23;;;;;;;6.80;98.76;94811.28;5035749;28;20918;-74
2023/03/04 04:31:21;;;;;;;15.47;10.70;;;;;;;6.79;98.09;94811.38;5035314;28;20494;-74
2023/03/04 04:33:48;;;;;;;16.23;11.47;;;;;;;6.78;98.09;94810.56;5035971;28;20490;-73
2023/03/04 04:36:16;;;;;;;14.77;10.83;;;;;;;6.75;97.97;94813.38;5035342;28;20497;-74
2023/03/04 04:38:43;;;;;;;14.87;10.07;;;;;;;6.74;98.26;94814.31;5035673;28;20786;-74
2023/03/04 04:41:18;;;;;;;20.03;11.60;;;;;;;6.70;98.17;94810.28;5035940;28;20449;-73
2023/03/04 04:43:47;;;;;;;16.03;10.80;;;;;;;6.65;98.71;94808.91;5035111;28;20499;-73
2023/03/04 04:46:13;;;;;;;20.07;11.40;;;;;;;6.57;98.33;94806.84;5035186;28;20500;-73
2023/03/04 04:48:40;;;;;;;15.07;11.50;;;;;;;6.48;98.37;94805.75;5035637;28;20508;-73
2023/03/04 04:51:08;;;;;;;16.37;10.93;;;;;;;6.40;98.47;94807.22;5035284;28;20478;-73
2023/03/04 04:53:35;;;;;;;15.33;9.80;;;;;;;6.35;98.99;94817.09;5034854;28;20980;-73
2023/03/04 04:56:08;;;;;;;16.65;12.25;;;;;;;6.37;99.10;94810.03;5034162;28;20456;-73
2023/03/04 04:58:36;;;;;;;16.63;10.57;;;;;;;6.48;100.00;94812.72;5034868;28;20208;-73
2023/03/04 05:01:05;;;;;;;15.50;11.60;;;;;;;6.47;100.00;94814.50;5035232;28;20447;-74
2023/03/04 05:03:32;;;;;;;14.10;9.67;;;;;;;6.43;100.00;94820.88;5034441;28;20447;-74
2023/03/04 05:05:59;;;;;;;16.70;11.00;;;;;;;6.44;99.74;94821.69;5033363;28;20918;-73
2023/03/04 05:08:26;;;;;;;20.43;10.70;;;;;;;6.47;99.34;94821.47;5034134;28;20508;-73
2023/03/04 05:10:52;;;;;;;15.53;10.60;;;;;;;6.53;99.67;94823.66;5034604;28;20447;-73
2023/03/04 05:13:19;;;;;;;15.93;11.30;;;;;;;6.59;99.09;94832.81;5069329;28;20453;-73
2023/03/04 05:15:46;;;;;;;14.60;10.73;;;;;;;6.64;98.73;94823.72;5086511;28;20470;-72
2023/03/04 05:18:14;;;;;;;15.30;10.83;;;;;;;6.67;98.19;94828.75;5089963;28;20449;-73
2023/03/04 05:20:41;;;;;;;18.47;11.10;;;;;;;6.68;97.74;94829.59;5092247;28;20452;-73
2023/03/04 05:23:08;;;;;;;15.50;11.00;;;;;;;6.65;97.59;94835.84;5092747;28;20451;-73
2023/03/04 05:25:35;;;;;;;18.70;10.07;;;;;;;6.66;97.73;94840.13;5093132;28;20457;-73
2023/03/04 05:28:03;;;;;;;16.37;9.50;;;;;;;6.69;98.32;94837.28;5091305;28;20454;-73
2023/03/04 05:30:30;;;;;;;15.57;10.70;;;;;;;6.69;98.19;94846.88;5083214;28;20441;-74
2023/03/04 05:32:57;;;;;;;14.20;9.90;;;;;;;6.63;97.40;94848.13;5088865;28;21114;-72
2023/03/04 05:35:25;;;;;;;13.83;10.17;;;;;;;6.59;97.95;94844.06;5089922;28;20476;-73
2023/03/04 05:37:52;;;;;;;16.53;9.97;;;;;;;6.62;97.50;94851.69;5090613;28;20441;-73
2023/03/04 05:40:19;;;;;;;18.60;9.33;;;;;;;6.59;97.98;94851.06;5093577;28;20437;-73
2023/03/04 05:42:46;;;;;;;16.13;9.47;;;;;;;6.59;97.57;94851.91;5058578;28;20422;-73
2023/03/04 05:45:12;;;;;;;15.57;10.43;;;;;;;6.64;98.05;94854.19;5093618;28;20449;-73
2023/03/04 05:47:39;;;;;;;16.43;10.50;;;;;;;6.72;98.52;94852.72;5071641;28;20446;-72
2023/03/04 05:50:07;;;;;;;21.93;11.10;;;;;;;6.79;98.27;94853.13;5091514;28;20463;-72
2023/03/04 05:52:35;;;;;;;16.20;10.30;;;;;;;6.80;98.13;94849.56;5022277;28;20507;-74
2023/03/04 05:55:02;;;;;;;17.33;8.90;;;;;;;6.87;98.03;94857.78;5090437;28;20468;-73
2023/03/04 05:57:29;;;;;;;14.97;9.90;;;;;;;6.92;97.55;94856.50;5090822;28;20444;-72
2023/03/04 05:59:55;;;;;;;12.80;9.43;;;;;;;7.00;97.31;94855.97;5090781;28;20449;-73
2023/03/04 06:02:22;;;;;;;15.97;10.50;;;;;;;7.04;96.62;94855.66;5056181;28;20446;-73
2023/03/04 06:04:49;;;;;;;17.13;10.73;;;;;;;7.12;97.18;94860.31;5074298;28;20434;-74
2023/03/04 06:07:15;;;;;;;13.60;10.00;;;;;;;7.18;96.62;94864.25;5093106;28;20431;-73
2023/03/04 06:09:44;;;;;;;15.53;10.70;;;;;;;7.26;96.24;94864.56;5091971;28;20443;-72
2023/03/04 06:12:10;;;;;;;19.13;11.77;;;;;;;12.97;100.00;94853.38;5092340;28;20505;-73
2023/03/04 06:14:37;;;;;;;9.80;8.73;;;;;;;11.81;100.00;94858.03;5091359;28;20448;-72
2023/03/04 06:17:04;;;;;;;13.70;8.60;;;;;;;10.50;100.00;94859.91;5056921;28;20453;-73
2023/03/04 06:19:31;;;;;;;12.00;8.53;;;;;;;9.60;100.00;94863.94;5092165;28;20448;-74
2023/03/04 06:21:58;;;;;;;11.40;8.93;;;;;;;8.93;100.00;94869.31;5092440;28;20479;-73
2023/03/04 06:24:27;;;;;;;12.90;9.30;;;;;;;8.57;100.00;94866.00;5091862;28;20445;-73
2023/03/04 06:26:55;;;;;;;13.53;10.07;;;;;;;8.56;100.00;94853.88;5093956;28;20449;-77
2023/03/04 06:29:22;;;;;;;16.90;8.90;;;;;;;8.62;100.00;94856.00;5081228;28;20454;-73
2023/03/04 06:31:49;;;;;;;18.07;11.80;;;;;;;8.26;100.00;94867.50;5076798;28;20486;-74
2023/03/04 06:34:15;;;;;;;16.90;10.80;;;;;;;8.16;100.00;94877.00;5075914;28;20470;-74
2023/03/04 06:36:42;;;;;;;15.43;11.47;;;;;;;8.12;100.00;94886.00;5073642;28;20480;-74
2023/03/04 06:39:09;;;;;;;17.70;12.77;;;;;;;8.00;100.00;94874.69;5044420;28;20462;-73
2023/03/04 06:41:36;;;;;;;19.20;11.80;;;;;;;7.98;100.00;94881.81;5052204;28;20499;-72
2023/03/04 06:44:05;;;;;;;19.73;13.83;;;;;;;7.96;100.00;94881.09;5052124;28;20441;-74
2023/03/04 06:46:33;;;;;;;30.80;21.07;;;;;;;7.96;100.00;94882.88;5051888;28;20463;-73
2023/03/04 06:49:00;;;;;;;32.10;22.93;;;;;;;7.95;100.00;94889.03;5051924;28;20450;-71
2023/03/04 06:51:27;;;;;;;26.70;18.60;;;;;;;7.91;100.00;94888.44;5052345;28;20886;-72
2023/03/04 06:53:54;;;;;;;25.40;16.23;;;;;;;7.90;100.00;94886.78;5052038;28;20462;-74
2023/03/04 06:56:21;;;;;;;26.10;18.20;;;;;;;7.92;100.00;94890.09;5052086;28;20447;-74
2023/03/04 06:58:48;;;;;;;24.40;16.60;;;;;;;7.96;100.00;94890.72;5057376;28;20449;-73
2023/03/04 07:01:19;;;;;;;34.20;21.50;;;;;;;7.92;100.00;94894.50;5051444;28;20500;-74
2023/03/04 07:03:46;;;;;;;43.87;23.03;;;;;;;7.99;100.00;94886.09;5034574;28;20451;-74
2023/03/04 07:06:15;;;;;;;33.03;21.77;;;;;;;7.75;100.00;94891.34;5050909;28;20450;-75
2023/03/04 07:08:43;;;;;;;38.20;23.97;;;;;;;7.54;100.00;94887.72;5051444;28;20451;-74
2023/03/04 07:11:10;;;;;;;39.60;25.87;;;;;;;7.62;100.00;94894.97;5051554;28;20505;-73
2023/03/04 07:13:38;;;;;;;36.80;24.33;;;;;;;7.61;100.00;94895.94;5051632;28;20489;-74
2023/03/04 07:16:06;;;;;;;42.50;25.47;;;;;;;7.67;100.00;94901.53;5041779;28;21035;-74
2023/03/04 07:18:34;;;;;;;42.63;23.40;;;;;;;7.62;100.00;94898.44;5051762;28;20455;-74
2023/03/04 07:21:01;;;;;;;35.30;23.00;;;;;;;7.64;100.00;94893.09;5051957;28;20452;-73
2023/03/04 07:23:28;;;;;;;43.67;25.40;;;;;;;7.46;100.00;94892.63;5051634;28;20447;-73
2023/03/04 07:25:54;;;;;;;42.00;24.00;;;;;;;7.46;100.00;94895.25;5051676;28;20841;-73
2023/03/04 07:28:22;;;;;;;40.47;25.27;;;;;;;7.53;100.00;94896.50;5052701;28;20495;-72
2023/03/04 07:30:48;;;;;;;51.10;27.07;;;;;;;7.53;100.00;94898.28;5054876;28;20454;-73
2023/03/04 07:33:15;;;;;;;45.50;24.97;;;;;;;7.57;100.00;94897.09;5019645;28;20894;-74
2023/03/04 07:35:43;;;;;;;43.03;26.60;;;;;;;7.64;100.00;94903.53;5042226;28;20454;-75
2023/03/04 07:38:10;;;;;;;46.27;25.53;;;;;;;7.68;100.00;94899.75;5055256;28;20456;-73
2023/03/04 07:40:37;;;;;;;45.00;25.37;;;;;;;7.87;100.00;94888.78;5055609;28;20520;-74
2023/03/04 07:43:04;;;;;;;43.57;26.70;;;;;;;7.83;100.00;94892.56;5054825;28;20466;-74
2023/03/04 07:45:31;;;;;;;38.90;21.70;;;;;;;7.95;100.00;94889.88;5055148;28;20454;-73
2023/03/04 07:47:58;;;;;;;46.07;23.87;;;;;;;7.86;100.00;94898.41;5044773;28;20457;-74
2023/03/04 07:50:25;;;;;;;36.93;23.50;;;;;;;7.92;100.00;94886.66;5053130;28;20452;-73
2023/03/04 07:52:53;;;;;;;35.83;22.50;;;;;;;7.94;100.00;94887.38;5054418;28;20491;-74
2023/03/04 07:55:20;;;;;;;39.17;22.50;;;;;;;7.98;100.00;94892.25;5054543;28;20439;-74
2023/03/04 07:57:47;;;;;;;44.47;29.07;;;;;;;8.09;100.00;94894.06;5054496;28;20451;-74
2023/03/04 08:00:16;;;;;;;37.70;23.27;;;;;;;8.00;100.00;94887.75;5054620;28;20505;-75
2023/03/04 08:02:43;;;;;;;44.20;29.03;;;;;;;8.13;100.00;94892.06;5005096;28;20455;-75
2023/03/04 08:05:10;;;;;;;54.13;35.00;;;;;;;8.18;100.00;94882.94;5034692;28;20457;-74
2023/03/04 08:07:37;;;;;;;41.17;27.70;;;;;;;8.29;100.00;94890.78;5034528;28;20852;-74
2023/03/04 08:10:09;;;;;;;35.43;22.90;;;;;;;8.34;100.00;94887.84;5034678;28;20460;-74
2023/03/04 08:12:36;;;;;;;38.03;22.10;;;;;;;8.44;100.00;94893.22;4999563;28;21013;-73
2023/03/04 08:15:03;;;;;;;31.60;20.87;;;;;;;8.51;100.00;94897.03;5034680;28;20472;-75
2023/03/04 08:17:30;;;;;;;30.20;20.33;;;;;;;8.51;100.00;94897.88;4999358;28;20453;-75
2023/03/04 08:19:57;;;;;;;33.10;20.27;;;;;;;8.45;100.00;94895.72;4999244;28;20443;-75
2023/03/04 08:22:23;;;;;;;31.43;19.00;;;;;;;8.47;100.00;94891.22;5034092;28;20450;-74
2023/03/04 08:24:50;;;;;;;25.30;16.87;;;;;;;8.51;100.00;94897.88;4999431;28;20449;-74
2023/03/04 08:27:18;;;;;;;28.07;17.30;;;;;;;8.56;100.00;94882.66;5033879;28;20958;-75
2023/03/04 08:29:45;;;;;;;28.43;18.80;;;;;;;8.67;100.00;94887.91;5034074;28;20445;-74
2023/03/04 08:32:12;;;;;;;32.27;19.33;;;;;;;8.81;100.00;94885.97;5032936;28;20998;-74
2023/03/04 08:34:39;;;;;;;38.33;19.83;;;;;;;8.69;100.00;94888.63;5033844;28;20538;-73
2023/03/04 08:37:06;;;;;;;33.60;20.30;;;;;;;8.75;100.00;94887.28;5034031;28;20540;-73
2023/03/04 08:39:34;;;;;;;34.07;18.87;;;;;;;8.81;100.00;94885.97;5033800;28;20456;-73
2023/03/04 08:42:01;;;;;;;34.13;20.27;;;;;;;8.65;100.00;94883.72;5034033;28;20459;-73
2023/03/04 08:44:30;;;;;;;35.80;20.50;;;;;;;8.56;98.30;94877.41;5034405;28;20812;-73
2023/03/04 08:46:56;;;;;;;29.50;19.87;;;;;;;8.43;98.31;94887.16;5034639;28;20442;-73
2023/03/04 08:49:23;;;;;;;27.90;18.10;;;;;;;8.43;97.67;94884.56;5033623;28;20457;-73
2023/03/04 08:51:50;;;;;;;30.93;19.10;;;;;;;8.38;97.71;94878.81;4999498;28;20837;-72
2023/03/04 08:54:17;;;;;;;36.20;20.77;;;;;;;8.47;100.00;94872.91;5015168;28;20860;-73
2023/03/04 08:56:43;;;;;;;32.73;21.13;;;;;;;8.58;100.00;94872.91;5034493;28;20450;-72
2023/03/04 08:59:10;;;;;;;23.60;17.17;;;;;;;8.40;96.94;94886.56;4999512;28;20461;-72
2023/03/04 09:01:38;;;;;;;26.47;15.80;;;;;;;8.48;97.48;94873.72;5033971;28;20816;-72
2023/03/04 09:04:05;;;;;;;22.70;16.73;;;;;;;8.49;95.57;94870.16;5034060;28;20620;-73
2023/03/04 09:06:32;;;;;;;28.37;17.20;;;;;;;8.72;96.60;94865.78;5034047;28;20458;-85
2023/03/04 09:08:59;;;;;;;38.57;16.80;;;;;;;8.86;95.35;94873.38;5041866;28;20979;-73
2023/03/04 09:11:26;;;;;;;20.50;14.03;;;;;;;9.05;95.76;94875.38;5053609;28;20516;-73
2023/03/04 09:13:53;;;;;;;31.70;18.80;;;;;;;9.22;94.11;94870.44;5053572;28;20508;-73
2023/03/04 09:16:20;;;;;;;30.70;19.30;;;;;;;9.38;95.09;94864.00;5053479;28;20497;-73
2023/03/04 09:18:48;;;;;;;26.83;17.43;;;;;;;9.40;92.63;94867.31;5042706;28;20504;-73
2023/03/04 09:21:15;;;;;;;28.77;17.07;;;;;;;9.48;91.54;94870.97;5014769;28;20439;-73
2023/03/04 09:23:42;;;;;;;26.13;17.17;;;;;;;9.56;90.84;94867.78;5040222;28;20454;-73
2023/03/04 09:26:19;;;;;;;30.30;17.70;;;;;;;9.65;91.34;94869.63;5053145;28;20449;-72
2023/03/04 09:28:45;;;;;;;25.63;16.43;;;;;;;9.68;90.53;94865.94;5052474;28;20464;-74
2023/03/04 09:31:13;;;;;;;23.90;15.93;;;;;;;9.67;89.15;94867.72;5052533;28;20440;-74
2023/03/04 09:33:42;;;;;;;27.40;16.30;;;;;;;9.57;88.62;94869.44;5050749;28;20493;-73
2023/03/04 09:36:11;;;;;;;26.27;17.60;;;;;;;9.68;91.83;94861.50;5053617;28;20445;-73
2023/03/04 09:38:38;;;;;;;31.60;18.40;;;;;;;9.67;91.04;94857.22;5053673;28;20444;-72
2023/03/04 09:41:08;;;;;;;25.77;17.27;;;;;;;9.73;91.14;94853.28;5053494;28;20442;-75
2023/03/04 09:43:37;;;;;;;28.17;18.17;;;;;;;9.79;91.26;94850.97;5034336;28;20939;-72
2023/03/04 09:46:08;;;;;;;27.53;18.70;;;;;;;9.83;91.39;94848.94;5053601;28;20445;-73
2023/03/04 09:48:43;;;;;;;25.43;15.30;;;;;;;9.79;89.56;94858.00;5053077;28;20457;-73
2023/03/04 09:51:20;;;;;;;21.23;14.70;;;;;;;9.79;91.86;94847.53;5052375;28;20464;-72
2023/03/04 09:53:57;;;;;;;35.37;17.80;;;;;;;9.76;90.52;94843.38;5053015;28;20492;-73
2023/03/04 09:56:25;;;;;;;21.77;15.17;;;;;;;9.69;89.52;94842.22;5053518;28;20507;-74
2023/03/04 09:59:02;;;;;;;27.23;16.30;;;;;;;9.77;90.33;94845.03;5053151;28;20943;-73
2023/03/04 10:01:34;;;;;;;23.70;16.23;;;;;;;9.69;90.30;94838.75;5053301;28;20452;-74
2023/03/04 10:04:06;;;;;;;28.60;20.03;;;;;;;9.68;91.00;94839.72;5053521;28;20476;-74
2023/03/04 10:06:34;;;;;;;27.67;16.47;;;;;;;9.63;90.08;94834.88;5052721;28;20532;-74
2023/03/04 10:09:04;;;;;;;24.03;16.20;;;;;;;9.60;90.71;94835.13;5042778;28;20505;-73
2023/03/04 10:11:37;;;;;;;24.60;17.43;;;;;;;9.64;92.26;94826.03;5032642;28;20768;-72
2023/03/04 10:14:27;;;;;;;28.50;18.60;;;;;;;9.41;91.84;94830.53;5037913;28;20488;-72
2023/03/04 10:16:57;;;;;;;34.77;17.77;;;;;;;9.36;91.67;94826.63;5041172;28;20450;-70
2023/03/04 10:19:34;;;;;;;29.20;17.70;;;;;;;9.23;92.51;94818.91;5041811;28;20470;-72
2023/03/04 10:22:17;;;;;;;32.73;18.47;;;;;;;9.02;93.12;94816.25;5052289;28;20453;-72
2023/03/04 10:24:45;;;;;;;29.30;19.33;;;;;;;8.95;92.87;94825.53;5040837;28;20442;-72
2023/03/04 10:27:17;;;;;;;27.97;19.57;;;;;;;8.92;93.21;94817.94;5032507;28;20450;-72
2023/03/04 10:29:44;;;;;;;35.10;20.33;;;;;;;8.96;92.94;94819.34;5043534;28;20452;-73
2023/03/04 10:32:14;;;;;;;30.37;19.40;;;;;;;9.03;93.80;94810.06;5051830;28;20508;-75
2023/03/04 10:34:40;;;;;;;33.83;18.47;;;;;;;9.13;93.63;94802.31;5023117;28;20482;-72
2023/03/04 10:37:10;;;;;;;31.47;20.30;;;;;;;9.16;92.92;94802.06;5045348;28;20850;-73
2023/03/04 10:39:39;;;;;;;29.17;18.47;;;;;;;9.11;92.51;94802.44;5052560;28;20460;-73
2023/03/04 10:42:22;;;;;;;30.13;16.47;;;;;;;9.23;92.93;94797.97;5052689;28;20463;-73
2023/03/04 10:44:53;;;;;;;27.43;18.87;;;;;;;9.32;91.72;94790.22;5033553;28;20436;-73
2023/03/04 10:47:19;;;;;;;31.73;18.10;;;;;;;9.40;91.53;94788.75;5052331;28;20445;-72
2023/03/04 10:49:52;;;;;;;28.97;18.30;;;;;;;9.48;92.63;94786.34;5052040;28;20450;-75
2023/03/04 10:52:28;;;;;;;26.83;16.80;;;;;;;9.45;90.48;94784.81;5051622;28;20537;-73
2023/03/04 10:54:57;;;;;;;25.47;18.17;;;;;;;9.69;92.32;94776.72;5051653;28;20593;-73
2023/03/04 10:57:29;;;;;;;23.80;16.47;;;;;;;9.94;93.28;94768.47;5052355;28;20471;-73
2023/03/04 10:59:57;;;;;;;31.83;18.83;;;;;;;9.99;88.67;94769.88;5052381;28;20449;-73
2023/03/04 11:02:27;;;;;;;25.20;18.90;;;;;;;10.05;88.78;94770.16;5053515;28;20928;-72
2023/03/04 11:04:57;;;;;;;29.17;18.30;;;;;;;10.04;86.80;94762.44;5056250;28;21018;-72
2023/03/04 11:07:27;;;;;;;30.80;18.80;;;;;;;10.06;86.39;94763.13;5056321;28;20775;-72
2023/03/04 11:09:54;;;;;;;24.80;17.10;;;;;;;10.00;87.08;94755.81;5037530;28;21210;-73
2023/03/04 11:12:31;;;;;;;27.20;17.70;;;;;;;10.08;87.40;94746.31;5056043;28;20874;-72
2023/03/04 11:14:58;;;;;;;26.83;18.40;;;;;;;10.17;87.38;94740.31;5056341;28;20579;-72
2023/03/04 11:17:26;;;;;;;24.30;16.87;;;;;;;10.33;85.80;94739.84;5055793;28;20499;-72
2023/03/04 11:19:58;;;;;;;24.67;17.00;;;;;;;10.30;85.33;94732.22;5055953;28;20445;-72
2023/03/04 11:22:30;;;;;;;23.40;16.60;;;;;;;10.49;86.59;94726.22;5056040;28;20449;-73
2023/03/04 11:25:02;;;;;;;23.43;17.20;;;;;;;10.60;85.36;94726.13;5055535;28;20491;-73
2023/03/04 11:27:41;;;;;;;28.90;19.27;;;;;;;10.77;85.90;94727.28;5055154;28;20445;-73